Fenix, Brazil
Current Conditions -  °F | °C
As of 4:00 PM on Monday 24 Nov 2014 (Local Time) from SBMG Reporting Station
Rain Showers Rain Showers  
Wind Chill: 84°   Ceiling: Unl
Heat Index: 88°   Visibility: 6mi
Dew Point: 70°   Wind: 8mph
Humidity: 62%   Direction: 20°NNE
Pressure: 29.85"   Gusts: NA
Location:  23.92°S, 51.98°W
Report Text: SBMG 241800Z 02007KT 360V090 9999 VCSH SCT033 FEW045TCU SCT100 29/21 Q1011
Loading
Personal Weather Stations






























Interactive Weather Map New forecast layout! Learn more

10-Day Weather Forecast

Advertisements
Track Severe Weather on mobile